Airfield :
LOGIN :

Register | Disclaimer

   EN    FR    IT 

 










Legend :    VFR   Marginal VFR   IFR   Intensive IFR   Very Intensive IFR
Visi :
Ceiling :
>= 8 km
>= 3000ft
5 to 8 km
1000 to 3000 ft
1500m to 5 km
500 to 1000 ft
800 to 1500m
200 to 500 ft
< 800m
< 200 ft
Symbols :   Thunderstorms  Fog  Heavy snow  Heavy precipitations  Wind > 20 kt
SIGMETs :     Misc.  Thunderstorms  Icing  Turbulence  Mountain Waves  Volcanic Ashes







- Airport Elevation : 1188 ft


LKLN - Plzen Line

CURRENT METAR :
  • 210035Z AUTO 05003KT 350V090 2100 -SN BKN003 OVC010 00/M00 Q0999

EXPIRED METARs :
  • 210012Z AUTO VRB02KT 2600 -SN BKN003 BKN008 OVC017 00/M00 Q0999
  • 210000Z AUTO VRB02KT 2600 -SN BKN003 BKN021 OVC029 00/M00 Q0999
  • 202300Z AUTO 08005KT 1700 -SN FEW003 OVC023 00/M00 Q1000
  • 202213Z AUTO 07005KT 1700 -SN FEW003 SCT005 OVC021 00/M00 Q1000
  • 202200Z AUTO 06004KT 2000 -SN OVC006 00/M00 Q1000

TAF N/A
No reported NOTAMs for that airfield.



MET'MAP, your aeronautical weather chart ! - Copyright ORBIFLY December 2007 - Disclaimer

ORBIFLY MET'MAP TEAM :

Programming & Development : Alexandra Zaïnal
Concept & Development : Baudouin d'Aumeries
Co-Development & Prog : Marc-Olivier Méhu
Technical & hardware support : Manuel Goepfert

Contact : metmap@orbifly.com




SOURCES & CREDITS :

   NOAA